sensor_id;sensor_type;location;lat;lon;timestamp;pressure;altitude;pressure_sealevel;temperature;humidity
37202;BME280;37799;52.390;6.136;2023-02-19T00:01:16;101621.69;;;10.11;100.00
37202;BME280;37799;52.390;6.136;2023-02-19T00:03:42;101617.28;;;10.21;100.00
37202;BME280;37799;52.390;6.136;2023-02-19T00:06:09;101613.16;;;10.01;100.00
37202;BME280;37799;52.390;6.136;2023-02-19T00:08:36;101610.59;;;10.00;100.00
37202;BME280;37799;52.390;6.136;2023-02-19T00:11:04;101612.41;;;9.93;100.00
37202;BME280;37799;52.390;6.136;2023-02-19T00:13:29;101613.94;;;10.10;100.00
37202;BME280;37799;52.390;6.136;2023-02-19T00:15:56;101615.72;;;10.06;100.00
37202;BME280;37799;52.390;6.136;2023-02-19T00:18:22;101610.72;;;9.89;100.00
37202;BME280;37799;52.390;6.136;2023-02-19T00:20:48;101622.53;;;10.12;100.00
37202;BME280;37799;52.390;6.136;2023-02-19T00:23:13;101624.53;;;9.88;100.00
37202;BME280;37799;52.390;6.136;2023-02-19T00:25:39;101615.81;;;9.97;100.00
37202;BME280;37799;52.390;6.136;2023-02-19T00:28:04;101621.81;;;10.00;100.00
37202;BME280;37799;52.390;6.136;2023-02-19T00:30:30;101618.38;;;9.98;100.00
37202;BME280;37799;52.390;6.136;2023-02-19T00:32:55;101622.81;;;9.90;100.00
37202;BME280;37799;52.390;6.136;2023-02-19T00:35:20;101625.25;;;10.01;100.00
37202;BME280;37799;52.390;6.136;2023-02-19T00:37:46;101615.00;;;9.93;100.00
37202;BME280;37799;52.390;6.136;2023-02-19T00:40:11;101628.84;;;9.91;100.00
37202;BME280;37799;52.390;6.136;2023-02-19T00:42:37;101631.41;;;9.89;100.00
37202;BME280;37799;52.390;6.136;2023-02-19T00:45:02;101628.78;;;9.95;100.00
37202;BME280;37799;52.390;6.136;2023-02-19T00:47:28;101631.41;;;9.92;100.00
37202;BME280;37799;52.390;6.136;2023-02-19T00:49:53;101623.53;;;10.01;100.00
37202;BME280;37799;52.390;6.136;2023-02-19T00:52:18;101629.81;;;9.76;100.00
37202;BME280;37799;52.390;6.136;2023-02-19T00:54:43;101631.47;;;9.85;100.00
37202;BME280;37799;52.390;6.136;2023-02-19T00:57:09;101632.91;;;10.10;100.00
37202;BME280;37799;52.390;6.136;2023-02-19T00:59:34;101625.38;;;9.90;100.00
37202;BME280;37799;52.390;6.136;2023-02-19T01:02:01;101629.66;;;9.94;100.00
37202;BME280;37799;52.390;6.136;2023-02-19T01:04:26;101629.81;;;9.76;100.00
37202;BME280;37799;52.390;6.136;2023-02-19T01:06:51;101632.31;;;9.87;100.00
37202;BME280;37799;52.390;6.136;2023-02-19T01:09:17;101626.31;;;9.83;100.00
37202;BME280;37799;52.390;6.136;2023-02-19T01:11:42;101633.16;;;9.87;100.00
37202;BME280;37799;52.390;6.136;2023-02-19T01:14:07;101633.13;;;9.89;100.00
37202;BME280;37799;52.390;6.136;2023-02-19T01:16:34;101624.44;;;9.97;100.00
37202;BME280;37799;52.390;6.136;2023-02-19T01:18:59;101638.22;;;9.99;100.00
37202;BME280;37799;52.390;6.136;2023-02-19T01:21:26;101631.53;;;9.80;100.00
37202;BME280;37799;52.390;6.136;2023-02-19T01:23:52;101638.31;;;9.90;100.00
37202;BME280;37799;52.390;6.136;2023-02-19T01:26:19;101641.91;;;9.77;100.00
37202;BME280;37799;52.390;6.136;2023-02-19T01:28:45;101641.78;;;9.88;100.00
37202;BME280;37799;52.390;6.136;2023-02-19T01:31:14;101641.13;;;9.67;100.00
37202;BME280;37799;52.390;6.136;2023-02-19T01:33:43;101642.81;;;9.71;100.00
37202;BME280;37799;52.390;6.136;2023-02-19T01:36:10;101645.50;;;9.61;100.00
37202;BME280;37799;52.390;6.136;2023-02-19T01:38:35;101644.72;;;9.51;100.00
37202;BME280;37799;52.390;6.136;2023-02-19T01:41:04;101642.03;;;9.62;100.00
37202;BME280;37799;52.390;6.136;2023-02-19T01:43:34;101648.03;;;9.67;100.00
37202;BME280;37799;52.390;6.136;2023-02-19T01:46:18;101643.00;;;9.52;100.00
37202;BME280;37799;52.390;6.136;2023-02-19T01:48:44;101642.91;;;9.59;100.00
37202;BME280;37799;52.390;6.136;2023-02-19T01:51:12;101647.22;;;9.59;100.00
37202;BME280;37799;52.390;6.136;2023-02-19T01:53:43;101640.34;;;9.58;100.00
37202;BME280;37799;52.390;6.136;2023-02-19T01:56:10;101646.41;;;9.55;100.00
37202;BME280;37799;52.390;6.136;2023-02-19T01:58:38;101646.44;;;9.54;100.00
37202;BME280;37799;52.390;6.136;2023-02-19T02:01:06;101644.66;;;9.59;100.00
37202;BME280;37799;52.390;6.136;2023-02-19T02:03:33;101637.03;;;9.43;100.00
37202;BME280;37799;52.390;6.136;2023-02-19T02:08:32;101643.88;;;9.52;100.00
37202;BME280;37799;52.390;6.136;2023-02-19T02:11:17;101647.38;;;9.43;100.00
37202;BME280;37799;52.390;6.136;2023-02-19T02:13:44;101644.78;;;9.43;100.00
37202;BME280;37799;52.390;6.136;2023-02-19T02:16:31;101649.81;;;9.59;100.00
37202;BME280;37799;52.390;6.136;2023-02-19T02:19:26;101644.88;;;9.31;100.00
37202;BME280;37799;52.390;6.136;2023-02-19T02:22:08;101643.16;;;9.30;100.00
37202;BME280;37799;52.390;6.136;2023-02-19T02:35:29;101647.41;;;9.40;100.00
37202;BME280;37799;52.390;6.136;2023-02-19T02:38:00;101644.00;;;9.32;100.00
37202;BME280;37799;52.390;6.136;2023-02-19T02:40:27;101654.34;;;9.32;100.00
37202;BME280;37799;52.390;6.136;2023-02-19T02:42:56;101658.63;;;9.35;100.00
37202;BME280;37799;52.390;6.136;2023-02-19T02:45:27;101662.13;;;9.31;100.00
37202;BME280;37799;52.390;6.136;2023-02-19T02:48:00;101661.25;;;9.32;100.00
37202;BME280;37799;52.390;6.136;2023-02-19T02:50:31;101662.22;;;9.19;100.00
37202;BME280;37799;52.390;6.136;2023-02-19T02:53:02;101663.88;;;9.23;100.00
37202;BME280;37799;52.390;6.136;2023-02-19T02:55:50;101666.53;;;9.15;100.00
37202;BME280;37799;52.390;6.136;2023-02-19T02:58:17;101667.31;;;9.23;100.00
37202;BME280;37799;52.390;6.136;2023-02-19T03:00:48;101675.97;;;9.21;100.00
37202;BME280;37799;52.390;6.136;2023-02-19T03:03:37;101672.56;;;9.11;100.00
37202;BME280;37799;52.390;6.136;2023-02-19T03:06:06;101679.44;;;9.20;100.00
37202;BME280;37799;52.390;6.136;2023-02-19T03:08:34;101682.00;;;9.21;100.00
37202;BME280;37799;52.390;6.136;2023-02-19T03:11:10;101682.03;;;9.18;100.00
37202;BME280;37799;52.390;6.136;2023-02-19T03:14:18;101687.16;;;9.21;100.00
37202;BME280;37799;52.390;6.136;2023-02-19T03:17:57;101694.13;;;9.10;100.00
37202;BME280;37799;52.390;6.136;2023-02-19T03:20:41;101699.34;;;9.04;100.00
37202;BME280;37799;52.390;6.136;2023-02-19T03:23:08;101702.75;;;9.06;100.00
37202;BME280;37799;52.390;6.136;2023-02-19T03:25:36;101695.88;;;9.05;100.00
37202;BME280;37799;52.390;6.136;2023-02-19T03:28:23;101695.88;;;9.05;100.00
37202;BME280;37799;52.390;6.136;2023-02-19T03:31:14;101694.13;;;9.10;100.00
37202;BME280;37799;52.390;6.136;2023-02-19T03:33:41;101699.31;;;9.07;100.00
37202;BME280;37799;52.390;6.136;2023-02-19T03:36:10;101695.06;;;8.97;100.00
37202;BME280;37799;52.390;6.136;2023-02-19T03:38:42;101706.25;;;8.96;100.00
37202;BME280;37799;52.390;6.136;2023-02-19T03:49:04;101713.13;;;8.97;100.00
37202;BME280;37799;52.390;6.136;2023-02-19T03:51:40;101714.81;;;9.07;100.00
37202;BME280;37799;52.390;6.136;2023-02-19T03:54:19;101723.47;;;9.03;100.00
37202;BME280;37799;52.390;6.136;2023-02-19T03:56:51;101721.75;;;9.02;100.00
37202;BME280;37799;52.390;6.136;2023-02-19T03:59:27;101723.47;;;8.98;100.00
37202;BME280;37799;52.390;6.136;2023-02-19T04:02:01;101732.97;;;8.93;100.00
37202;BME280;37799;52.390;6.136;2023-02-19T04:04:33;101733.72;;;9.10;100.00
37202;BME280;37799;52.390;6.136;2023-02-19T04:07:01;101738.94;;;9.06;100.00
37202;BME280;37799;52.390;6.136;2023-02-19T04:09:31;101741.50;;;9.12;100.00
37202;BME280;37799;52.390;6.136;2023-02-19T04:11:58;101746.66;;;9.09;100.00
37202;BME280;37799;52.390;6.136;2023-02-19T04:14:29;101754.53;;;8.84;100.00
37202;BME280;37799;52.390;6.136;2023-02-19T04:17:02;101748.47;;;8.95;100.00
37202;BME280;37799;52.390;6.136;2023-02-19T04:19:32;101751.03;;;8.95;100.00
37202;BME280;37799;52.390;6.136;2023-02-19T04:22:00;101754.41;;;9.10;100.00
37202;BME280;37799;52.390;6.136;2023-02-19T04:24:37;101763.03;;;9.08;100.00
37202;BME280;37799;52.390;6.136;2023-02-19T04:27:03;101773.38;;;9.05;100.00
37202;BME280;37799;52.390;6.136;2023-02-19T04:29:29;101765.66;;;8.97;100.00
37202;BME280;37799;52.390;6.136;2023-02-19T04:31:55;101772.53;;;9.03;100.00
37202;BME280;37799;52.390;6.136;2023-02-19T04:34:20;101767.41;;;8.94;100.00
37202;BME280;37799;52.390;6.136;2023-02-19T04:36:45;101778.63;;;8.90;100.00
37202;BME280;37799;52.390;6.136;2023-02-19T04:39:11;101781.16;;;9.02;100.00
37202;BME280;37799;52.390;6.136;2023-02-19T04:41:36;101781.16;;;8.96;100.00
37202;BME280;37799;52.390;6.136;2023-02-19T04:44:01;101787.22;;;8.95;100.00
37202;BME280;37799;52.390;6.136;2023-02-19T04:46:27;101788.06;;;8.94;100.00
37202;BME280;37799;52.390;6.136;2023-02-19T04:48:52;101790.69;;;8.88;100.00
37202;BME280;37799;52.390;6.136;2023-02-19T04:51:17;101803.59;;;8.89;100.00
37202;BME280;37799;52.390;6.136;2023-02-19T04:53:43;101804.44;;;8.94;100.00
37202;BME280;37799;52.390;6.136;2023-02-19T04:56:10;101806.19;;;8.83;100.00
37202;BME280;37799;52.390;6.136;2023-02-19T04:58:36;101816.53;;;8.78;100.00
37202;BME280;37799;52.390;6.136;2023-02-19T05:01:03;101825.16;;;8.77;100.00
37202;BME280;37799;52.390;6.136;2023-02-19T05:03:28;101820.81;;;8.92;100.00
37202;BME280;37799;52.390;6.136;2023-02-19T05:05:54;101826.84;;;8.83;100.00
37202;BME280;37799;52.390;6.136;2023-02-19T05:08:19;101834.63;;;8.78;100.00
37202;BME280;37799;52.390;6.136;2023-02-19T05:10:44;101827.72;;;8.79;100.00
37202;BME280;37799;52.390;6.136;2023-02-19T05:13:09;101833.75;;;8.82;100.00
37202;BME280;37799;52.390;6.136;2023-02-19T05:15:35;101836.31;;;8.84;100.00
37202;BME280;37799;52.390;6.136;2023-02-19T05:18:00;101832.03;;;8.81;100.00
37202;BME280;37799;52.390;6.136;2023-02-19T05:20:26;101838.91;;;8.82;100.00
37202;BME280;37799;52.390;6.136;2023-02-19T05:22:51;101842.38;;;8.86;100.00
37202;BME280;37799;52.390;6.136;2023-02-19T05:25:16;101838.94;;;8.73;100.00
37202;BME280;37799;52.390;6.136;2023-02-19T05:27:42;101844.09;;;8.70;100.00
37202;BME280;37799;52.390;6.136;2023-02-19T05:30:08;101838.91;;;8.79;100.00
37202;BME280;37799;52.390;6.136;2023-02-19T05:32:34;101837.19;;;8.78;100.00
37202;BME280;37799;52.390;6.136;2023-02-19T05:34:59;101845.78;;;8.88;100.00
37202;BME280;37799;52.390;6.136;2023-02-19T05:37:25;101856.09;;;8.85;100.00
37202;BME280;37799;52.390;6.136;2023-02-19T05:39:50;101857.88;;;8.77;100.00
37202;BME280;37799;52.390;6.136;2023-02-19T05:42:15;101854.44;;;8.76;100.00
37202;BME280;37799;52.390;6.136;2023-02-19T05:44:41;101864.75;;;8.79;100.00
37202;BME280;37799;52.390;6.136;2023-02-19T05:47:06;101856.13;;;8.83;100.00
37202;BME280;37799;52.390;6.136;2023-02-19T05:49:32;101869.94;;;8.75;100.00
37202;BME280;37799;52.390;6.136;2023-02-19T05:51:57;101866.50;;;8.65;100.00
37202;BME280;37799;52.390;6.136;2023-02-19T05:54:22;101864.78;;;8.64;100.00
37202;BME280;37799;52.390;6.136;2023-02-19T05:56:47;101868.22;;;8.58;100.00
37202;BME280;37799;52.390;6.136;2023-02-19T05:59:19;101864.75;;;8.67;100.00
37202;BME280;37799;52.390;6.136;2023-02-19T06:01:45;101868.22;;;8.63;100.00
37202;BME280;37799;52.390;6.136;2023-02-19T06:04:12;101871.63;;;8.71;100.00
37202;BME280;37799;52.390;6.136;2023-02-19T06:06:38;101880.28;;;8.61;100.00
37202;BME280;37799;52.390;6.136;2023-02-19T06:09:05;101885.41;;;8.76;100.00
37202;BME280;37799;52.390;6.136;2023-02-19T06:11:31;101882.88;;;8.61;100.00
37202;BME280;37799;52.390;6.136;2023-02-19T06:13:56;101882.84;;;8.67;100.00
37202;BME280;37799;52.390;6.136;2023-02-19T06:16:22;101878.56;;;8.46;100.00
37202;BME280;37799;52.390;6.136;2023-02-19T06:18:48;101887.16;;;8.61;100.00
37202;BME280;37799;52.390;6.136;2023-02-19T06:21:15;101895.75;;;8.55;100.00
37202;BME280;37799;52.390;6.136;2023-02-19T06:23:41;101905.22;;;8.57;100.00
37202;BME280;37799;52.390;6.136;2023-02-19T06:26:18;101917.25;;;8.58;100.00
37202;BME280;37799;52.390;6.136;2023-02-19T06:28:45;101921.56;;;8.55;100.00
37202;BME280;37799;52.390;6.136;2023-02-19T06:31:11;101919.84;;;8.58;100.00
37202;BME280;37799;52.390;6.136;2023-02-19T06:33:38;101925.88;;;8.67;100.00
37202;BME280;37799;52.390;6.136;2023-02-19T06:36:05;101930.19;;;8.46;100.00
37202;BME280;37799;52.390;6.136;2023-02-19T06:38:31;101937.09;;;8.49;100.00
37202;BME280;37799;52.390;6.136;2023-02-19T06:41:01;101942.22;;;8.41;100.00
37202;BME280;37799;52.390;6.136;2023-02-19T06:43:27;101945.69;;;8.48;100.00
37202;BME280;37799;52.390;6.136;2023-02-19T06:45:53;101955.13;;;8.37;100.00
37202;BME280;37799;52.390;6.136;2023-02-19T06:48:18;101955.13;;;8.46;100.00
37202;BME280;37799;52.390;6.136;2023-02-19T06:50:44;101959.38;;;8.33;100.00
37202;BME280;37799;52.390;6.136;2023-02-19T06:53:09;101963.69;;;8.33;100.00
37202;BME280;37799;52.390;6.136;2023-02-19T06:55:36;101975.72;;;8.29;100.00
37202;BME280;37799;52.390;6.136;2023-02-19T06:58:02;101963.69;;;8.28;100.00
37202;BME280;37799;52.390;6.136;2023-02-19T07:00:27;101969.69;;;8.32;100.00
37202;BME280;37799;52.390;6.136;2023-02-19T07:02:52;101983.47;;;8.26;100.00
37202;BME280;37799;52.390;6.136;2023-02-19T07:05:21;101981.75;;;8.23;100.00
37202;BME280;37799;52.390;6.136;2023-02-19T07:07:46;101986.88;;;8.17;100.00
37202;BME280;37799;52.390;6.136;2023-02-19T07:10:12;101999.78;;;8.13;100.00
37202;BME280;37799;52.390;6.136;2023-02-19T07:12:37;102000.69;;;8.28;100.00
37202;BME280;37799;52.390;6.136;2023-02-19T07:15:02;101998.06;;;8.19;100.00
37202;BME280;37799;52.390;6.136;2023-02-19T07:17:28;102009.25;;;8.18;100.00
37202;BME280;37799;52.390;6.136;2023-02-19T07:19:53;102010.09;;;8.17;100.00
37202;BME280;37799;52.390;6.136;2023-02-19T07:22:18;102016.97;;;8.17;100.00
37202;BME280;37799;52.390;6.136;2023-02-19T07:24:43;102029.03;;;8.13;100.00
37202;BME280;37799;52.390;6.136;2023-02-19T07:27:09;102031.63;;;8.25;100.00
37202;BME280;37799;52.390;6.136;2023-02-19T07:29:34;102031.63;;;8.22;100.00
37202;BME280;37799;52.390;6.136;2023-02-19T07:31:59;102031.63;;;8.22;100.00
37202;BME280;37799;52.390;6.136;2023-02-19T07:34:25;102034.19;;;8.15;100.00
37202;BME280;37799;52.390;6.136;2023-02-19T07:36:50;102043.63;;;8.11;100.00
37202;BME280;37799;52.390;6.136;2023-02-19T07:39:15;102051.34;;;8.05;100.00
37202;BME280;37799;52.390;6.136;2023-02-19T07:41:41;102050.50;;;8.09;100.00
37202;BME280;37799;52.390;6.136;2023-02-19T07:44:06;102054.78;;;8.07;100.00
37202;BME280;37799;52.390;6.136;2023-02-19T07:46:31;102053.97;;;8.11;100.00
37202;BME280;37799;52.390;6.136;2023-02-19T07:48:58;102056.53;;;8.14;100.00
37202;BME280;37799;52.390;6.136;2023-02-19T07:51:23;102061.69;;;8.14;100.00
37202;BME280;37799;52.390;6.136;2023-02-19T07:53:49;102054.78;;;8.04;100.00
37202;BME280;37799;52.390;6.136;2023-02-19T07:56:15;102059.13;;;8.08;100.00
37202;BME280;37799;52.390;6.136;2023-02-19T07:58:41;102059.94;;;8.06;100.00
37202;BME280;37799;52.390;6.136;2023-02-19T08:01:17;102066.03;;;8.27;100.00
37202;BME280;37799;52.390;6.136;2023-02-19T08:03:44;102083.25;;;8.22;100.00
37202;BME280;37799;52.390;6.136;2023-02-19T08:06:10;102090.94;;;8.15;100.00
37202;BME280;37799;52.390;6.136;2023-02-19T08:08:37;102093.47;;;8.01;100.00
37202;BME280;37799;52.390;6.136;2023-02-19T08:11:04;102094.31;;;8.05;100.00
37202;BME280;37799;52.390;6.136;2023-02-19T08:13:49;102102.09;;;8.09;100.00
37202;BME280;37799;52.390;6.136;2023-02-19T08:16:16;102113.19;;;7.90;100.00
37202;BME280;37799;52.390;6.136;2023-02-19T08:18:44;102112.25;;;7.80;100.00
37202;BME280;37799;52.390;6.136;2023-02-19T08:21:10;102121.75;;;7.81;100.00
37202;BME280;37799;52.390;6.136;2023-02-19T08:23:35;102126.84;;;7.75;100.00
37202;BME280;37799;52.390;6.136;2023-02-19T08:26:01;102123.47;;;7.82;100.00
37202;BME280;37799;52.390;6.136;2023-02-19T08:28:28;102131.16;;;7.81;100.00
37202;BME280;37799;52.390;6.136;2023-02-19T08:30:58;102136.31;;;7.81;100.00
37202;BME280;37799;52.390;6.136;2023-02-19T08:33:23;102143.19;;;7.80;100.00
37202;BME280;37799;52.390;6.136;2023-02-19T08:35:48;102146.72;;;7.93;100.00
37202;BME280;37799;52.390;6.136;2023-02-19T08:38:14;102156.94;;;7.81;100.00
37202;BME280;37799;52.390;6.136;2023-02-19T08:40:41;102163.78;;;7.73;100.00
37202;BME280;37799;52.390;6.136;2023-02-19T08:43:11;102166.47;;;7.85;100.00
37202;BME280;37799;52.390;6.136;2023-02-19T08:45:38;102179.25;;;7.73;100.00
37202;BME280;37799;52.390;6.136;2023-02-19T08:48:04;102172.38;;;7.68;100.00
37202;BME280;37799;52.390;6.136;2023-02-19T08:50:30;102175.81;;;7.69;100.00
37202;BME280;37799;52.390;6.136;2023-02-19T08:52:58;102175.81;;;7.74;100.00
37202;BME280;37799;52.390;6.136;2023-02-19T08:55:23;102183.56;;;7.75;100.00
37202;BME280;37799;52.390;6.136;2023-02-19T08:57:48;102186.13;;;7.72;100.00
37202;BME280;37799;52.390;6.136;2023-02-19T09:00:14;102192.94;;;7.62;100.00
37202;BME280;37799;52.390;6.136;2023-02-19T09:02:39;102198.06;;;7.59;100.00
37202;BME280;37799;52.390;6.136;2023-02-19T09:05:05;102204.97;;;7.66;100.00
37202;BME280;37799;52.390;6.136;2023-02-19T09:07:31;102201.53;;;7.64;100.00
37202;BME280;37799;52.390;6.136;2023-02-19T09:09:56;102200.75;;;7.73;100.00
37202;BME280;37799;52.390;6.136;2023-02-19T09:12:22;102198.25;;;7.84;100.00
37202;BME280;37799;52.390;6.136;2023-02-19T09:14:48;102207.66;;;7.77;100.00
37202;BME280;37799;52.390;6.136;2023-02-19T09:17:13;102222.22;;;7.71;100.00
37202;BME280;37799;52.390;6.136;2023-02-19T09:19:38;102226.56;;;7.78;100.00
37202;BME280;37799;52.390;6.136;2023-02-19T09:22:04;102235.13;;;7.72;100.00
37202;BME280;37799;52.390;6.136;2023-02-19T09:24:30;102255.88;;;7.86;100.00
37202;BME280;37799;52.390;6.136;2023-02-19T09:26:56;102254.94;;;7.81;100.00
37202;BME280;37799;52.390;6.136;2023-02-19T09:29:26;102259.22;;;7.79;100.00
37202;BME280;37799;52.390;6.136;2023-02-19T09:31:58;102269.66;;;7.91;100.00
37202;BME280;37799;52.390;6.136;2023-02-19T09:34:25;102278.22;;;7.88;100.00
37202;BME280;37799;52.390;6.136;2023-02-19T09:36:52;102279.94;;;7.88;100.00
37202;BME280;37799;52.390;6.136;2023-02-19T09:39:17;102280.78;;;7.84;100.00
37202;BME280;37799;52.390;6.136;2023-02-19T09:41:54;102280.78;;;7.85;100.00
37202;BME280;37799;52.390;6.136;2023-02-19T09:44:31;102295.44;;;7.94;100.00
37202;BME280;37799;52.390;6.136;2023-02-19T09:46:57;102301.72;;;8.23;100.00
37202;BME280;37799;52.390;6.136;2023-02-19T09:49:28;102291.38;;;8.20;100.00
37202;BME280;37799;52.390;6.136;2023-02-19T09:52:07;102312.06;;;8.26;100.00
37202;BME280;37799;52.390;6.136;2023-02-19T09:54:37;102318.94;;;8.24;100.00
37202;BME280;37799;52.390;6.136;2023-02-19T09:57:04;102312.91;;;8.21;100.00
37202;BME280;37799;52.390;6.136;2023-02-19T09:59:59;102313.72;;;8.18;100.00
37202;BME280;37799;52.390;6.136;2023-02-19T10:02:26;102319.69;;;8.10;100.00
37202;BME280;37799;52.390;6.136;2023-02-19T10:04:52;102321.97;;;7.78;100.00
37202;BME280;37799;52.390;6.136;2023-02-19T10:07:23;102333.13;;;7.74;100.00
37202;BME280;37799;52.390;6.136;2023-02-19T10:09:59;102339.16;;;7.79;100.00
37202;BME280;37799;52.390;6.136;2023-02-19T10:12:28;102344.31;;;7.76;100.00
37202;BME280;37799;52.390;6.136;2023-02-19T10:15:27;102347.59;;;7.62;100.00
37202;BME280;37799;52.390;6.136;2023-02-19T10:17:54;102348.47;;;7.61;100.00
37202;BME280;37799;52.390;6.136;2023-02-19T10:20:21;102356.09;;;7.52;100.00
37202;BME280;37799;52.390;6.136;2023-02-19T10:22:51;102363.81;;;7.51;100.00
37202;BME280;37799;52.390;6.136;2023-02-19T10:25:19;102372.41;;;7.53;100.00
37202;BME280;37799;52.390;6.136;2023-02-19T10:27:44;102375.00;;;7.54;100.00
37202;BME280;37799;52.390;6.136;2023-02-19T10:30:28;102385.00;;;7.27;100.00
37202;BME280;37799;52.390;6.136;2023-02-19T10:33:10;102393.59;;;7.29;100.00
37202;BME280;37799;52.390;6.136;2023-02-19T10:35:51;102385.94;;;7.33;100.00
37202;BME280;37799;52.390;6.136;2023-02-19T10:38:18;102391.84;;;7.25;100.00
37202;BME280;37799;52.390;6.136;2023-02-19T10:40:44;102393.69;;;7.35;100.00
37202;BME280;37799;52.390;6.136;2023-02-19T10:43:21;102392.78;;;7.30;100.00
37202;BME280;37799;52.390;6.136;2023-02-19T10:45:55;102387.38;;;7.12;100.00
37202;BME280;37799;52.390;6.136;2023-02-19T10:48:52;102393.41;;;7.14;100.00
37202;BME280;37799;52.390;6.136;2023-02-19T10:51:19;102408.84;;;7.10;100.00
37202;BME280;37799;52.390;6.136;2023-02-19T10:54:03;102402.81;;;7.08;100.00
37202;BME280;37799;52.390;6.136;2023-02-19T10:56:28;102402.09;;;7.19;100.00
37202;BME280;37799;52.390;6.136;2023-02-19T10:59:13;102403.16;;;7.37;100.00
37202;BME280;37799;52.390;6.136;2023-02-19T11:01:58;102401.41;;;7.35;100.00
37202;BME280;37799;52.390;6.136;2023-02-19T11:04:29;102392.16;;;7.49;100.00
37202;BME280;37799;52.390;6.136;2023-02-19T11:07:06;102392.28;;;7.61;100.00
37202;BME280;37799;52.390;6.136;2023-02-19T11:09:39;102391.78;;;7.94;100.00
37202;BME280;37799;52.390;6.136;2023-02-19T11:12:07;102392.69;;;8.01;100.00
37202;BME280;37799;52.390;6.136;2023-02-19T11:14:33;102390.22;;;8.10;100.00
37202;BME280;37799;52.390;6.136;2023-02-19T11:17:01;102391.19;;;8.24;100.00
37202;BME280;37799;52.390;6.136;2023-02-19T11:19:35;102396.59;;;8.52;100.00
37202;BME280;37799;52.390;6.136;2023-02-19T11:22:27;102407.97;;;8.80;100.00
37202;BME280;37799;52.390;6.136;2023-02-19T11:24:54;102398.72;;;9.20;100.00
37202;BME280;37799;52.390;6.136;2023-02-19T11:27:22;102403.97;;;9.35;100.00
37202;BME280;37799;52.390;6.136;2023-02-19T11:29:48;102411.00;;;9.76;100.00
37202;BME280;37799;52.390;6.136;2023-02-19T11:34:45;102420.56;;;10.03;100.00
37202;BME280;37799;52.390;6.136;2023-02-19T11:37:13;102420.56;;;10.20;100.00
37202;BME280;37799;52.390;6.136;2023-02-19T11:39:40;102426.66;;;10.22;100.00
37202;BME280;37799;52.390;6.136;2023-02-19T11:45:30;102423.22;;;10.29;100.00
37202;BME280;37799;52.390;6.136;2023-02-19T11:53:31;102430.03;;;9.92;100.00
37202;BME280;37799;52.390;6.136;2023-02-19T11:56:14;102427.44;;;10.01;100.00
37202;BME280;37799;52.390;6.136;2023-02-19T11:58:47;102426.56;;;10.00;100.00
37202;BME280;37799;52.390;6.136;2023-02-19T12:06:52;102418.81;;;9.91;100.00
37202;BME280;37799;52.390;6.136;2023-02-19T12:09:39;102416.25;;;10.20;100.00
37202;BME280;37799;52.390;6.136;2023-02-19T12:12:17;102408.53;;;10.23;100.00
37202;BME280;37799;52.390;6.136;2023-02-19T12:18:23;102408.50;;;10.28;100.00
37202;BME280;37799;52.390;6.136;2023-02-19T12:21:19;102415.44;;;10.43;100.00
37202;BME280;37799;52.390;6.136;2023-02-19T12:24:18;102415.44;;;10.40;100.00
37202;BME280;37799;52.390;6.136;2023-02-19T12:27:04;102421.47;;;10.52;100.00
37202;BME280;37799;52.390;6.136;2023-02-19T12:30:01;102419.75;;;10.57;100.00
37202;BME280;37799;52.390;6.136;2023-02-19T12:37:54;102417.13;;;10.65;100.00
37202;BME280;37799;52.390;6.136;2023-02-19T12:45:30;102443.94;;;10.59;100.00
37202;BME280;37799;52.390;6.136;2023-02-19T12:48:01;102446.50;;;10.52;100.00
37202;BME280;37799;52.390;6.136;2023-02-19T12:50:29;102442.19;;;10.58;100.00
37202;BME280;37799;52.390;6.136;2023-02-19T12:53:00;102446.53;;;10.69;100.00
37202;BME280;37799;52.390;6.136;2023-02-19T12:55:41;102443.06;;;10.73;100.00
37202;BME280;37799;52.390;6.136;2023-02-19T12:58:14;102440.47;;;10.68;100.00
37202;BME280;37799;52.390;6.136;2023-02-19T13:00:47;102447.38;;;10.61;100.00
37202;BME280;37799;52.390;6.136;2023-02-19T13:03:36;102457.72;;;10.49;100.00
37202;BME280;37799;52.390;6.136;2023-02-19T13:06:32;102452.53;;;10.37;100.00
37202;BME280;37799;52.390;6.136;2023-02-19T13:09:12;102454.28;;;10.44;100.00
37202;BME280;37799;52.390;6.136;2023-02-19T13:11:49;102467.22;;;10.29;100.00
37202;BME280;37799;52.390;6.136;2023-02-19T13:14:33;102477.53;;;10.17;100.00
37202;BME280;37799;52.390;6.136;2023-02-19T13:19:57;102482.59;;;9.86;100.00
37202;BME280;37799;52.390;6.136;2023-02-19T13:22:30;102478.28;;;9.88;100.00
37202;BME280;37799;52.390;6.136;2023-02-19T13:25:17;102484.31;;;9.81;100.00
37202;BME280;37799;52.390;6.136;2023-02-19T13:28:04;102497.25;;;9.77;100.00
37202;BME280;37799;52.390;6.136;2023-02-19T13:31:05;102498.06;;;9.71;100.00
37202;BME280;37799;52.390;6.136;2023-02-19T13:33:46;102496.34;;;9.76;100.00
37202;BME280;37799;52.390;6.136;2023-02-19T13:36:25;102498.16;;;9.91;100.00
37202;BME280;37799;52.390;6.136;2023-02-19T13:38:53;102480.06;;;9.98;100.00
37202;BME280;37799;52.390;6.136;2023-02-19T13:41:32;102484.38;;;9.90;100.00
37202;BME280;37799;52.390;6.136;2023-02-19T13:44:03;102477.38;;;9.75;100.00
37202;BME280;37799;52.390;6.136;2023-02-19T13:46:42;102478.25;;;9.73;100.00
37202;BME280;37799;52.390;6.136;2023-02-19T13:49:38;102486.88;;;9.72;100.00
37202;BME280;37799;52.390;6.136;2023-02-19T14:01:01;102497.09;;;9.48;100.00
37202;BME280;37799;52.390;6.136;2023-02-19T14:03:51;102499.69;;;9.49;100.00
37202;BME280;37799;52.390;6.136;2023-02-19T14:06:17;102491.13;;;9.62;100.00
37202;BME280;37799;52.390;6.136;2023-02-19T14:08:54;102493.78;;;9.74;100.00